Time;durP1;ratioP1;P1;durP2;ratioP2;P2;SDS_P1;SDS_P2;PMS_P1;PMS_P2;Temp;Humidity;BMP_temperature;BMP_pressure;BME280_temperature;BME280_humidity;BME280_pressure;Samples;Min_cycle;Max_cycle;Signal;HPM_P1;HPM_P2
2023/12/10 00:00:56;;;;;;;18.23;2.93;;;8.60;99.90;;;;;;5066618;28;20056;-72
2023/12/10 00:03:22;;;;;;;;;;;8.70;99.90;;;;;;5080903;28;20171;-72
2023/12/10 00:05:48;;;;;;;24.88;3.30;;;8.70;99.90;;;;;;5078644;28;19937;-72
2023/12/10 00:08:14;;;;;;;20.27;2.70;;;8.70;99.90;;;;;;5077593;28;20032;-72
2023/12/10 00:10:39;;;;;;;18.40;2.70;;;8.70;99.90;;;;;;5082429;28;20031;-72
2023/12/10 00:13:05;;;;;;;17.58;3.30;;;8.70;99.90;;;;;;5084582;28;20492;-72
2023/12/10 00:15:31;;;;;;;25.90;3.97;;;8.70;99.90;;;;;;5081428;28;20364;-72
2023/12/10 00:17:57;;;;;;;19.70;2.43;;;8.70;99.90;;;;;;5072899;28;20044;-72
2023/12/10 00:20:23;;;;;;;21.33;3.17;;;8.60;99.90;;;;;;5071723;28;20626;-72
2023/12/10 00:22:49;;;;;;;;;;;8.60;99.90;;;;;;5079736;28;20524;-72
2023/12/10 00:25:14;;;;;;;16.65;3.65;;;8.60;99.90;;;;;;5074148;28;19916;-72
2023/12/10 00:27:40;;;;;;;14.87;2.73;;;8.60;99.90;;;;;;5080864;28;20036;-72
2023/12/10 00:30:07;;;;;;;25.17;3.77;;;8.60;99.90;;;;;;5080953;28;20074;-71
2023/12/10 00:32:33;;;;;;;21.13;3.72;;;8.70;99.90;;;;;;5080706;28;20422;-71
2023/12/10 00:34:59;;;;;;;12.87;3.53;;;8.60;99.90;;;;;;5090132;28;20050;-71
2023/12/10 00:37:24;;;;;;;17.70;2.67;;;8.70;99.90;;;;;;5077798;28;20520;-72
2023/12/10 00:39:50;;;;;;;16.20;2.37;;;8.70;99.90;;;;;;5082639;28;20043;-72
2023/12/10 00:42:16;;;;;;;16.53;2.57;;;8.70;99.90;;;;;;5079784;28;20127;-72
2023/12/10 00:44:42;;;;;;;21.00;2.93;;;8.70;99.90;;;;;;5080653;28;20093;-72
2023/12/10 00:47:08;;;;;;;22.15;2.08;;;8.60;99.90;;;;;;5081820;28;20504;-72
2023/12/10 00:49:33;;;;;;;13.80;2.27;;;8.60;99.90;;;;;;5079812;28;20362;-72
2023/12/10 00:51:59;;;;;;;12.90;2.57;;;8.50;99.90;;;;;;5069903;28;20471;-72
2023/12/10 00:54:25;;;;;;;13.93;2.03;;;8.50;99.90;;;;;;5072526;28;20531;-72
2023/12/10 00:56:50;;;;;;;15.95;1.95;;;8.40;99.90;;;;;;5078123;28;20477;-72
2023/12/10 00:59:16;;;;;;;9.10;1.90;;;8.40;99.90;;;;;;5080060;28;20051;-72
2023/12/10 01:01:42;;;;;;;15.10;2.60;;;8.40;99.90;;;;;;5080882;28;20155;-72
2023/12/10 01:04:08;;;;;;;14.00;2.30;;;8.30;99.90;;;;;;5082877;28;20132;-72
2023/12/10 01:06:34;;;;;;;13.43;2.35;;;8.30;99.90;;;;;;5076928;28;20280;-72
2023/12/10 01:08:59;;;;;;;15.97;3.00;;;8.30;99.90;;;;;;5083484;28;20051;-72
2023/12/10 01:11:25;;;;;;;11.83;2.40;;;8.20;99.90;;;;;;5075480;28;20079;-72
2023/12/10 01:13:51;;;;;;;18.10;3.07;;;8.20;99.90;;;;;;5080758;28;20040;-72
2023/12/10 01:16:17;;;;;;;17.30;2.67;;;8.20;99.90;;;;;;5085538;28;20141;-72
2023/12/10 01:18:43;;;;;;;17.80;3.50;;;8.10;99.90;;;;;;5079755;28;20516;-72
2023/12/10 01:21:09;;;;;;;21.10;3.03;;;8.10;99.90;;;;;;5075847;28;20052;-72
2023/12/10 01:23:36;;;;;;;21.23;2.63;;;8.00;99.90;;;;;;5072501;28;20044;-72
2023/12/10 01:26:02;;;;;;;17.33;2.78;;;8.00;99.90;;;;;;5078589;28;20444;-72
2023/12/10 01:28:28;;;;;;;35.23;4.00;;;8.00;99.90;;;;;;5079260;28;20044;-71
2023/12/10 01:30:53;;;;;;;13.47;2.97;;;8.00;99.90;;;;;;5079466;28;20393;-72
2023/12/10 01:33:19;;;;;;;17.27;3.30;;;7.90;99.90;;;;;;5079073;28;20797;-72
2023/12/10 01:35:44;;;;;;;13.03;2.70;;;8.00;99.90;;;;;;5082416;28;20332;-72
2023/12/10 01:38:10;;;;;;;20.27;3.07;;;8.00;99.90;;;;;;5073871;28;20121;-71
2023/12/10 01:40:36;;;;;;;19.77;3.42;;;8.00;99.90;;;;;;5072264;28;20044;-71
2023/12/10 01:43:07;;;;;;;19.83;2.60;;;8.00;99.90;;;;;;5080559;28;20224;-71
2023/12/10 01:45:33;;;;;;;14.20;2.92;;;7.90;99.90;;;;;;5081165;28;20028;-71
2023/12/10 01:47:59;;;;;;;22.42;3.05;;;7.90;99.90;;;;;;5062220;28;20799;-71
2023/12/10 01:50:25;;;;;;;17.45;2.45;;;7.90;99.90;;;;;;5079679;28;20040;-71
2023/12/10 01:52:51;;;;;;;18.08;3.13;;;7.90;99.90;;;;;;5080074;28;20084;-71
2023/12/10 01:55:17;;;;;;;15.18;2.70;;;7.90;99.90;;;;;;5078192;28;20059;-71
2023/12/10 01:57:43;;;;;;;12.02;2.00;;;7.90;99.90;;;;;;5080391;28;20070;-71
2023/12/10 02:00:09;;;;;;;15.70;2.10;;;7.90;99.90;;;;;;5074391;28;20508;-73
2023/12/10 02:02:36;;;;;;;19.33;2.75;;;7.80;99.90;;;;;;5079317;28;20522;-73
2023/12/10 02:05:08;;;;;;;13.85;2.53;;;7.80;99.90;;;;;;5077600;28;20052;-73
2023/12/10 02:07:35;;;;;;;15.27;2.38;;;7.90;99.90;;;;;;5078215;28;20040;-73
2023/12/10 02:10:01;;;;;;;;;;;7.90;99.90;;;;;;5057499;28;20106;-73
2023/12/10 02:12:27;;;;;;;19.95;3.08;;;7.80;99.90;;;;;;5074201;28;19924;-73
2023/12/10 02:14:54;;;;;;;14.35;3.13;;;7.80;99.90;;;;;;5084860;28;20032;-73
2023/12/10 02:17:20;;;;;;;16.30;3.38;;;7.80;99.90;;;;;;5075616;28;20559;-73
2023/12/10 02:19:45;;;;;;;20.50;3.17;;;7.80;99.90;;;;;;5076132;28;20058;-74
2023/12/10 02:22:14;;;;;;;20.20;2.70;;;7.80;99.90;;;;;;5076830;28;20044;-74
2023/12/10 02:24:51;;;;;;;22.65;3.13;;;7.80;99.90;;;;;;5082137;28;20066;-73
2023/12/10 02:27:19;;;;;;;13.00;3.05;;;7.80;99.90;;;;;;5074829;28;20048;-72
2023/12/10 02:29:44;;;;;;;9.63;2.08;;;7.80;99.90;;;;;;5071085;28;20040;-73
2023/12/10 02:32:10;;;;;;;10.53;2.33;;;7.80;99.90;;;;;;5080789;28;20467;-73
2023/12/10 02:34:36;;;;;;;17.43;2.20;;;7.80;99.90;;;;;;5077311;28;20458;-73
2023/12/10 02:37:02;;;;;;;10.53;2.23;;;7.80;99.90;;;;;;5075294;28;20086;-73
2023/12/10 02:39:28;;;;;;;14.77;2.28;;;7.80;99.90;;;;;;5081096;28;20655;-73
2023/12/10 02:41:54;;;;;;;12.10;2.63;;;7.80;99.90;;;;;;5076328;28;20130;-73
2023/12/10 02:44:19;;;;;;;20.63;2.27;;;7.80;99.90;;;;;;5077530;28;20293;-73
2023/12/10 02:46:48;;;;;;;12.67;2.97;;;7.80;99.90;;;;;;5080823;28;20068;-73
2023/12/10 02:49:14;;;;;;;16.98;3.15;;;7.80;99.90;;;;;;5075595;28;20416;-73
2023/12/10 02:51:39;;;;;;;21.53;2.50;;;7.80;99.90;;;;;;5075565;28;20044;-73
2023/12/10 02:54:05;;;;;;;12.25;2.70;;;7.80;99.90;;;;;;5077327;28;20044;-72
2023/12/10 02:56:31;;;;;;;13.40;3.22;;;7.80;99.90;;;;;;5080083;28;20527;-73
2023/12/10 02:58:57;;;;;;;14.90;3.10;;;7.80;99.90;;;;;;5080497;28;20154;-73
2023/12/10 03:01:23;;;;;;;10.87;2.67;;;7.80;99.90;;;;;;5071284;28;20304;-73
2023/12/10 03:03:48;;;;;;;13.93;2.70;;;7.70;99.90;;;;;;5077522;28;20412;-73
2023/12/10 03:06:14;;;;;;;14.20;1.80;;;7.70;99.90;;;;;;5074596;28;20040;-72
2023/12/10 03:08:40;;;;;;;12.97;1.97;;;7.70;99.90;;;;;;5082191;28;20473;-72
2023/12/10 03:11:06;;;;;;;18.90;2.40;;;7.70;99.90;;;;;;5075144;28;20040;-73
2023/12/10 03:13:31;;;;;;;13.48;2.00;;;7.70;99.90;;;;;;5081791;28;20524;-73
2023/12/10 03:15:57;;;;;;;16.27;2.00;;;7.70;99.90;;;;;;5079532;28;20043;-72
2023/12/10 03:18:23;;;;;;;12.70;2.10;;;7.70;99.90;;;;;;5059283;28;20042;-72
2023/12/10 03:20:48;;;;;;;10.47;1.77;;;7.60;99.90;;;;;;5078186;28;20040;-72
2023/12/10 03:23:14;;;;;;;8.27;2.03;;;7.70;99.90;;;;;;5079881;28;20408;-72
2023/12/10 03:25:40;;;;;;;13.87;2.57;;;7.70;99.90;;;;;;5083345;28;20500;-72
2023/12/10 03:28:05;;;;;;;10.20;1.70;;;7.60;99.90;;;;;;5064960;28;20072;-72
2023/12/10 03:30:31;;;;;;;11.40;1.60;;;7.70;99.90;;;;;;5078120;28;20047;-72
2023/12/10 03:32:56;;;;;;;9.07;1.43;;;7.70;99.90;;;;;;5078102;28;20050;-71
2023/12/10 03:35:22;;;;;;;5.27;1.47;;;7.70;99.90;;;;;;5058942;28;20052;-71
2023/12/10 03:37:48;;;;;;;10.13;1.77;;;7.80;99.90;;;;;;5076778;28;20047;-72
2023/12/10 03:40:13;;;;;;;10.63;1.50;;;7.80;99.90;;;;;;5062515;28;20035;-71
2023/12/10 03:42:39;;;;;;;10.07;2.30;;;7.80;99.90;;;;;;5078173;28;20552;-71
2023/12/10 03:45:05;;;;;;;17.63;3.03;;;7.90;99.90;;;;;;5079715;28;20067;-71
2023/12/10 03:47:31;;;;;;;8.20;1.45;;;7.90;99.90;;;;;;5082920;28;20032;-72
2023/12/10 03:49:56;;;;;;;8.17;1.50;;;7.90;99.90;;;;;;5079261;28;20514;-72
2023/12/10 03:52:22;;;;;;;8.90;1.47;;;8.00;99.90;;;;;;5076999;28;20599;-72
2023/12/10 03:54:48;;;;;;;17.03;1.90;;;8.00;99.90;;;;;;5079811;28;20396;-71
2023/12/10 03:57:13;;;;;;;16.67;1.87;;;8.10;99.90;;;;;;5084987;28;20496;-71
2023/12/10 03:59:39;;;;;;;11.43;2.23;;;8.10;99.90;;;;;;5080154;28;20126;-71
2023/12/10 04:02:05;;;;;;;21.57;2.27;;;8.10;99.90;;;;;;5077535;28;20054;-72
2023/12/10 04:04:30;;;;;;;12.37;2.37;;;8.10;99.90;;;;;;5082602;28;20040;-72
2023/12/10 04:06:56;;;;;;;19.80;2.07;;;8.10;99.90;;;;;;5079432;28;20446;-71
2023/12/10 04:09:22;;;;;;;14.32;2.65;;;8.10;99.90;;;;;;5077204;28;20162;-72
2023/12/10 04:11:48;;;;;;;26.23;2.77;;;8.10;99.90;;;;;;5077075;28;20066;-71
2023/12/10 04:14:14;;;;;;;9.02;1.90;;;8.10;99.90;;;;;;5084847;28;20454;-71
2023/12/10 04:16:39;;;;;;;14.20;2.27;;;8.20;99.90;;;;;;5086257;28;20052;-71
2023/12/10 04:19:05;;;;;;;20.60;3.47;;;8.10;99.90;;;;;;5084362;28;20285;-71
2023/12/10 04:21:31;;;;;;;15.03;3.13;;;8.10;99.90;;;;;;5083379;28;20342;-71
2023/12/10 04:23:57;;;;;;;20.15;3.35;;;8.20;99.90;;;;;;5089709;28;20426;-71
2023/12/10 04:26:23;;;;;;;20.75;2.20;;;8.20;99.90;;;;;;5062266;28;20045;-72
2023/12/10 04:28:49;;;;;;;17.37;2.93;;;8.20;99.90;;;;;;5083409;28;20040;-71
2023/12/10 04:31:15;;;;;;;13.60;2.08;;;8.20;99.90;;;;;;5084365;28;20048;-71
2023/12/10 04:33:44;;;;;;;12.05;2.67;;;8.20;99.90;;;;;;5090204;28;20044;-71
2023/12/10 04:36:11;;;;;;;14.32;2.58;;;8.20;99.90;;;;;;5081361;28;20476;-71
2023/12/10 04:38:37;;;;;;;23.73;2.63;;;8.30;99.90;;;;;;5084697;28;20097;-71
2023/12/10 04:41:03;;;;;;;17.77;2.50;;;8.30;99.90;;;;;;5088097;28;20047;-71
2023/12/10 04:43:29;;;;;;;13.48;2.55;;;8.30;99.90;;;;;;5082839;28;20040;-71
2023/12/10 04:45:55;;;;;;;17.93;2.17;;;8.30;99.90;;;;;;5084044;28;20042;-71
2023/12/10 04:48:21;;;;;;;14.40;2.63;;;8.30;99.90;;;;;;5085837;28;20396;-71
2023/12/10 04:50:47;;;;;;;19.33;3.40;;;8.30;99.90;;;;;;5086948;28;20594;-71
2023/12/10 04:53:13;;;;;;;17.13;2.80;;;8.30;99.90;;;;;;5081231;28;20040;-71
2023/12/10 04:55:39;;;;;;;19.73;3.70;;;8.30;99.90;;;;;;5067540;28;20043;-71
2023/12/10 04:58:04;;;;;;;15.80;2.83;;;8.30;99.90;;;;;;5085046;28;20079;-71
2023/12/10 05:00:30;;;;;;;18.93;4.30;;;8.40;99.90;;;;;;5078784;28;20934;-71
2023/12/10 05:02:56;;;;;;;18.05;2.67;;;8.40;99.90;;;;;;5072609;28;20063;-71
2023/12/10 05:05:21;;;;;;;19.93;3.13;;;8.30;99.90;;;;;;5082346;28;20036;-71
2023/12/10 05:07:47;;;;;;;19.63;2.97;;;8.40;99.90;;;;;;5083333;28;20031;-71
2023/12/10 05:10:13;;;;;;;18.47;3.00;;;8.40;99.90;;;;;;5085784;28;20078;-71
2023/12/10 05:12:38;;;;;;;13.23;1.77;;;8.40;99.90;;;;;;5080317;28;20064;-71
2023/12/10 05:15:05;;;;;;;13.53;2.20;;;8.40;99.90;;;;;;5082583;28;20086;-71
2023/12/10 05:17:34;;;;;;;15.93;2.38;;;8.40;99.90;;;;;;5079835;28;20036;-71
2023/12/10 05:19:59;;;;;;;10.10;1.98;;;8.40;99.90;;;;;;5082822;28;20040;-71
2023/12/10 05:22:25;;;;;;;7.93;1.47;;;8.50;99.90;;;;;;5082025;28;20588;-71
2023/12/10 05:24:51;;;;;;;10.00;1.63;;;8.40;99.90;;;;;;5089812;28;20403;-71
2023/12/10 05:27:16;;;;;;;8.07;1.57;;;8.50;99.90;;;;;;5082845;28;20051;-71
2023/12/10 05:29:42;;;;;;;12.02;2.42;;;8.50;99.90;;;;;;5088436;28;20036;-71
2023/12/10 05:32:08;;;;;;;19.30;2.13;;;8.50;99.90;;;;;;5066324;28;20216;-71
2023/12/10 05:34:33;;;;;;;9.97;1.97;;;8.50;99.90;;;;;;5082608;28;20044;-71
2023/12/10 05:36:59;;;;;;;7.67;2.00;;;8.60;99.90;;;;;;5091310;28;20102;-71
2023/12/10 05:39:25;;;;;;;19.87;2.60;;;8.50;99.90;;;;;;5082574;28;20507;-71
2023/12/10 05:41:51;;;;;;;9.73;1.63;;;8.60;99.90;;;;;;5081450;28;20051;-71
2023/12/10 05:44:16;;;;;;;11.00;1.77;;;8.50;99.90;;;;;;5085347;28;20064;-71
2023/12/10 05:46:42;;;;;;;9.00;1.90;;;8.50;99.90;;;;;;5085488;28;20376;-71
2023/12/10 05:49:08;;;;;;;15.70;2.20;;;8.50;99.90;;;;;;5084919;28;20252;-71
2023/12/10 05:51:33;;;;;;;9.70;1.70;;;8.50;99.90;;;;;;5086915;28;20273;-72
2023/12/10 05:53:59;;;;;;;8.13;1.67;;;8.50;99.90;;;;;;5085040;28;20092;-71
2023/12/10 05:56:25;;;;;;;3.70;1.00;;;8.50;99.90;;;;;;5085266;28;20036;-71
2023/12/10 05:58:50;;;;;;;7.40;1.10;;;8.40;99.90;;;;;;5083369;28;20378;-72
2023/12/10 06:01:16;;;;;;;3.13;1.17;;;8.40;99.90;;;;;;5080462;28;20492;-71
2023/12/10 06:03:42;;;;;;;5.53;1.67;;;8.40;99.90;;;;;;5082169;28;20226;-71
2023/12/10 06:06:07;;;;;;;9.33;1.23;;;8.40;99.90;;;;;;5087832;28;20066;-72
2023/12/10 06:08:33;;;;;;;2.60;0.60;;;8.40;99.90;;;;;;5083761;28;20040;-72
2023/12/10 06:10:59;;;;;;;3.13;0.87;;;8.50;99.90;;;;;;5071630;28;20145;-72
2023/12/10 06:13:27;;;;;;;5.28;1.50;;;8.40;99.90;;;;;;5063751;28;20082;-72
2023/12/10 06:15:54;;;;;;;9.32;1.27;;;8.40;99.90;;;;;;5092982;28;20399;-72
2023/12/10 06:18:20;;;;;;;3.40;0.73;;;8.40;99.90;;;;;;5084744;28;20196;-71
2023/12/10 06:20:46;;;;;;;6.03;1.10;;;8.40;99.90;;;;;;5088838;28;20152;-72
2023/12/10 06:23:12;;;;;;;3.17;1.20;;;8.40;99.90;;;;;;5087131;28;20052;-72
2023/12/10 06:25:37;;;;;;;8.23;2.10;;;8.40;99.90;;;;;;5081138;28;20043;-73
2023/12/10 06:28:03;;;;;;;9.80;0.97;;;8.40;99.90;;;;;;5083467;28;20265;-72
2023/12/10 06:30:29;;;;;;;5.50;1.10;;;8.40;99.90;;;;;;5081924;28;20437;-72
2023/12/10 06:32:55;;;;;;;6.20;1.20;;;8.40;99.90;;;;;;5085078;28;20497;-72
2023/12/10 06:35:21;;;;;;;;;;;8.40;99.90;;;;;;5080158;28;20192;-71
2023/12/10 06:37:47;;;;;;;7.07;0.80;;;8.40;99.90;;;;;;5080096;28;20035;-72
2023/12/10 06:40:12;;;;;;;2.33;0.70;;;8.40;99.90;;;;;;5084837;28;20044;-71
2023/12/10 06:42:38;;;;;;;9.00;1.20;;;8.40;99.90;;;;;;5083869;28;20036;-72
2023/12/10 06:45:05;;;;;;;5.47;0.95;;;8.30;99.90;;;;;;5085760;28;20415;-72
2023/12/10 06:47:31;;;;;;;6.82;1.27;;;8.30;99.90;;;;;;5069582;28;20040;-72
2023/12/10 06:49:56;;;;;;;3.30;0.80;;;8.30;99.90;;;;;;5087486;28;20055;-71
2023/12/10 06:52:22;;;;;;;4.83;1.00;;;8.30;99.90;;;;;;5088996;28;20047;-72
2023/12/10 06:54:48;;;;;;;2.80;0.50;;;8.30;99.90;;;;;;5086150;28;20046;-72
2023/12/10 06:57:13;;;;;;;7.87;1.03;;;8.30;99.90;;;;;;5087796;28;20059;-72
2023/12/10 06:59:39;;;;;;;4.10;1.07;;;8.30;99.90;;;;;;5082573;28;20044;-71
2023/12/10 07:02:05;;;;;;;4.27;0.93;;;8.30;99.90;;;;;;5080834;28;20732;-71
2023/12/10 07:04:31;;;;;;;6.37;1.43;;;8.30;99.90;;;;;;5079774;28;20412;-72
2023/12/10 07:06:56;;;;;;;5.83;1.20;;;8.30;99.90;;;;;;5081794;28;20293;-72
2023/12/10 07:09:23;;;;;;;9.57;1.27;;;8.40;99.90;;;;;;5086305;28;20040;-72
2023/12/10 07:11:48;;;;;;;;;;;8.40;99.90;;;;;;5083946;28;20115;-72
2023/12/10 07:14:15;;;;;;;6.32;0.80;;;8.40;99.90;;;;;;5083058;28;20002;-71
2023/12/10 07:16:40;;;;;;;4.47;1.02;;;8.40;99.90;;;;;;5076502;28;20043;-72
2023/12/10 07:19:06;;;;;;;14.87;2.80;;;8.40;99.90;;;;;;5085220;28;20063;-72
2023/12/10 07:21:32;;;;;;;10.67;1.50;;;8.40;99.90;;;;;;5065877;28;20040;-72
2023/12/10 07:23:57;;;;;;;15.23;1.57;;;8.40;99.90;;;;;;5080295;28;20040;-72
2023/12/10 07:26:25;;;;;;;12.23;1.83;;;8.40;99.90;;;;;;5082263;28;20040;-72
2023/12/10 07:28:51;;;;;;;4.90;1.23;;;8.40;99.90;;;;;;5078740;28;20101;-72
2023/12/10 07:31:18;;;;;;;15.95;2.10;;;8.40;99.90;;;;;;5083364;28;20043;-72
2023/12/10 07:33:44;;;;;;;12.68;1.98;;;8.40;99.90;;;;;;5074366;28;20055;-72
2023/12/10 07:36:10;;;;;;;9.15;1.98;;;8.40;99.90;;;;;;5080885;28;20409;-70
2023/12/10 07:38:37;;;;;;;14.93;2.40;;;8.40;99.90;;;;;;5083813;28;20044;-70
2023/12/10 07:41:04;;;;;;;14.02;1.70;;;8.40;99.90;;;;;;5082250;28;22086;-70
2023/12/10 07:43:30;;;;;;;15.18;2.50;;;8.40;99.90;;;;;;5083438;28;20047;-70
2023/12/10 07:45:56;;;;;;;21.20;2.15;;;8.40;99.90;;;;;;5086505;28;20036;-70
2023/12/10 07:48:22;;;;;;;12.60;1.80;;;8.30;99.90;;;;;;5073167;28;20043;-71
2023/12/10 07:50:48;;;;;;;13.05;2.20;;;8.40;99.90;;;;;;5083380;28;20084;-71
2023/12/10 07:53:14;;;;;;;14.33;2.07;;;8.30;99.90;;;;;;5079888;28;20496;-71
2023/12/10 07:55:39;;;;;;;10.85;2.08;;;8.30;99.90;;;;;;5077504;28;20467;-72
2023/12/10 07:58:05;;;;;;;10.20;1.23;;;8.30;99.90;;;;;;5080441;28;20047;-72
2023/12/10 08:00:31;;;;;;;15.67;2.27;;;8.30;99.90;;;;;;5083014;28;20400;-72
2023/12/10 08:02:57;;;;;;;13.05;4.35;;;8.40;99.90;;;;;;5085229;28;20056;-72
2023/12/10 08:05:22;;;;;;;11.05;2.97;;;8.30;99.90;;;;;;5076308;28;20065;-72
2023/12/10 08:07:48;;;;;;;12.63;3.13;;;8.30;99.90;;;;;;5080257;28;20067;-72
2023/12/10 08:10:14;;;;;;;11.27;1.93;;;8.30;99.90;;;;;;5083271;28;20081;-72
2023/12/10 08:12:39;;;;;;;15.77;2.37;;;8.30;99.90;;;;;;5076532;28;20096;-72
2023/12/10 08:15:06;;;;;;;15.03;2.33;;;8.30;99.90;;;;;;5079266;28;20040;-72
2023/12/10 08:17:32;;;;;;;16.10;2.75;;;8.30;99.90;;;;;;5085096;28;20548;-72
2023/12/10 08:19:57;;;;;;;14.30;2.40;;;8.30;99.90;;;;;;5082986;28;20052;-72
2023/12/10 08:22:23;;;;;;;17.63;2.43;;;8.40;99.90;;;;;;5084017;28;20412;-71
2023/12/10 08:24:49;;;;;;;16.00;2.20;;;8.30;99.90;;;;;;5083226;28;20071;-72
2023/12/10 08:27:14;;;;;;;13.53;3.17;;;8.30;99.90;;;;;;5090058;28;20138;-72
2023/12/10 08:29:40;;;;;;;20.80;2.73;;;8.30;99.90;;;;;;5085078;28;20047;-72
2023/12/10 08:32:06;;;;;;;13.97;2.17;;;8.40;99.90;;;;;;5086495;28;20399;-72
2023/12/10 08:34:32;;;;;;;11.93;3.05;;;8.40;99.90;;;;;;5077600;28;20404;-72
2023/12/10 08:36:58;;;;;;;20.20;1.97;;;8.40;99.90;;;;;;5085101;28;20043;-72
2023/12/10 08:39:23;;;;;;;20.20;3.60;;;8.40;99.90;;;;;;5079607;28;20040;-72
2023/12/10 08:41:50;;;;;;;15.40;2.45;;;8.40;99.90;;;;;;5084660;28;20170;-71
2023/12/10 08:44:15;;;;;;;20.30;2.70;;;8.40;99.90;;;;;;5086258;28;20500;-72
2023/12/10 08:46:41;;;;;;;11.63;2.13;;;8.50;99.90;;;;;;5089320;28;20038;-72
2023/12/10 08:49:08;;;;;;;13.93;2.40;;;8.50;99.90;;;;;;5081013;28;20032;-72
2023/12/10 08:51:33;;;;;;;18.95;3.03;;;8.50;99.90;;;;;;5093764;28;20097;-72
2023/12/10 08:53:59;;;;;;;18.60;2.50;;;8.50;99.90;;;;;;5075583;28;20043;-73
2023/12/10 08:56:26;;;;;;;14.13;2.78;;;8.50;99.90;;;;;;5090422;28;20038;-72
2023/12/10 08:58:51;;;;;;;;;;;8.50;99.90;;;;;;5079221;28;20492;-72
2023/12/10 09:01:17;;;;;;;13.98;2.10;;;8.50;99.90;;;;;;5086928;28;19923;-72
2023/12/10 09:03:45;;;;;;;16.17;2.00;;;8.50;99.90;;;;;;5087156;28;20068;-72
2023/12/10 09:06:14;;;;;;;21.50;2.35;;;8.50;99.90;;;;;;5080659;28;20284;-72
2023/12/10 09:08:40;;;;;;;10.70;1.90;;;8.60;99.90;;;;;;5083529;28;20036;-72
2023/12/10 09:11:05;;;;;;;12.02;3.00;;;8.50;99.90;;;;;;5090956;28;20080;-72
2023/12/10 09:13:37;;;;;;;7.90;1.97;;;8.60;99.90;;;;;;5085117;28;20042;-72
2023/12/10 09:16:03;;;;;;;24.55;2.70;;;8.50;99.90;;;;;;5070408;28;20308;-71
2023/12/10 09:18:29;;;;;;;26.27;3.45;;;8.60;99.90;;;;;;5093657;28;20041;-71
2023/12/10 09:20:55;;;;;;;11.90;2.23;;;8.50;99.90;;;;;;5085465;28;20130;-71
2023/12/10 09:23:21;;;;;;;17.77;3.67;;;8.50;99.90;;;;;;5096291;28;20312;-71
2023/12/10 09:25:48;;;;;;;12.30;2.97;;;8.50;99.90;;;;;;5083563;28;20818;-72
2023/12/10 09:28:13;;;;;;;;;;;8.50;99.90;;;;;;5089771;28;20419;-72
2023/12/10 09:30:39;;;;;;;18.60;2.33;;;8.50;99.90;;;;;;5072151;28;19916;-71
2023/12/10 09:33:05;;;;;;;18.20;2.25;;;8.40;99.90;;;;;;5077032;28;20424;-71
2023/12/10 09:35:31;;;;;;;12.40;1.77;;;8.50;99.90;;;;;;5084043;28;20069;-71
2023/12/10 09:37:56;;;;;;;8.80;1.98;;;8.50;99.90;;;;;;5074792;28;20119;-71
2023/12/10 09:40:22;;;;;;;19.00;2.13;;;8.50;99.90;;;;;;5080768;28;20576;-71
2023/12/10 09:42:48;;;;;;;8.90;2.15;;;8.50;99.90;;;;;;5087007;28;20031;-71
2023/12/10 09:45:14;;;;;;;10.70;1.97;;;8.50;99.90;;;;;;5079667;28;20105;-72
2023/12/10 09:47:40;;;;;;;14.40;1.80;;;8.50;99.90;;;;;;5084938;28;20376;-71
2023/12/10 09:50:06;;;;;;;21.20;2.05;;;8.60;99.90;;;;;;5079046;28;20473;-71
2023/12/10 09:52:32;;;;;;;18.67;2.22;;;8.60;99.90;;;;;;5079963;28;20060;-71
2023/12/10 09:54:58;;;;;;;21.93;2.90;;;8.50;99.90;;;;;;5082804;28;20072;-71
2023/12/10 09:57:28;;;;;;;10.73;2.65;;;8.60;99.90;;;;;;5087354;28;20407;-71
2023/12/10 09:59:53;;;;;;;17.73;3.00;;;8.60;99.90;;;;;;5082941;28;20047;-71
2023/12/10 10:02:19;;;;;;;11.35;1.98;;;8.50;99.90;;;;;;5087304;28;20040;-71
2023/12/10 10:04:45;;;;;;;18.63;2.83;;;8.50;99.90;;;;;;5088024;28;20529;-72
2023/12/10 10:07:13;;;;;;;14.63;2.67;;;8.50;99.90;;;;;;5078150;28;20380;-71
2023/12/10 10:09:43;;;;;;;22.83;3.90;;;8.50;99.90;;;;;;5081340;28;20400;-71
2023/12/10 10:12:11;;;;;;;18.42;3.25;;;8.50;99.90;;;;;;5074879;28;20063;-72
2023/12/10 10:14:52;;;;;;;19.65;2.65;;;8.50;99.90;;;;;;5088468;28;20102;-71
2023/12/10 10:17:28;;;;;;;19.50;3.92;;;8.40;99.90;;;;;;5086890;28;20052;-71
2023/12/10 10:19:55;;;;;;;17.35;3.15;;;8.50;99.90;;;;;;5084523;28;20043;-71
2023/12/10 10:22:26;;;;;;;30.92;3.25;;;8.50;99.90;;;;;;5078740;28;20047;-71
2023/12/10 10:24:53;;;;;;;25.52;3.70;;;8.50;99.90;;;;;;5079712;28;20538;-71
2023/12/10 10:27:19;;;;;;;17.63;4.28;;;8.50;99.90;;;;;;5077634;28;20056;-71
2023/12/10 10:29:54;;;;;;;24.42;3.88;;;8.50;99.90;;;;;;5086156;28;20051;-71
2023/12/10 10:32:21;;;;;;;17.88;3.25;;;8.60;99.90;;;;;;5085825;28;20085;-71
2023/12/10 10:34:47;;;;;;;17.20;3.03;;;8.60;99.90;;;;;;5075600;28;20040;-72
2023/12/10 10:37:15;;;;;;;;;;;8.60;99.90;;;;;;5085760;28;20573;-72
2023/12/10 10:39:44;;;;;;;25.00;3.78;;;8.60;99.90;;;;;;5085425;28;20006;-72
2023/12/10 10:42:11;;;;;;;13.85;2.85;;;8.70;99.90;;;;;;5060377;28;20083;-71
2023/12/10 10:44:37;;;;;;;20.83;3.88;;;8.70;99.90;;;;;;5077483;28;20040;-71
2023/12/10 10:47:07;;;;;;;;;;;8.70;99.90;;;;;;5082103;28;20104;-71
2023/12/10 10:49:36;;;;;;;18.35;2.92;;;8.70;99.90;;;;;;5074867;28;20012;-71
2023/12/10 10:52:04;;;;;;;22.25;3.45;;;8.70;99.90;;;;;;5078926;28;20127;-71
2023/12/10 10:54:33;;;;;;;19.05;3.38;;;8.70;99.90;;;;;;5062413;28;20089;-71
2023/12/10 10:57:02;;;;;;;14.85;3.35;;;8.80;99.90;;;;;;5075569;28;20040;-72
2023/12/10 10:59:32;;;;;;;22.05;4.07;;;8.70;99.90;;;;;;5083957;28;20059;-71
2023/12/10 11:02:11;;;;;;;25.75;4.07;;;8.80;99.90;;;;;;5083839;28;20561;-71
2023/12/10 11:04:47;;;;;;;16.55;3.30;;;8.80;99.90;;;;;;5078938;28;20089;-71
2023/12/10 11:07:15;;;;;;;22.75;3.38;;;8.80;99.90;;;;;;5067597;28;20083;-72
2023/12/10 11:09:58;;;;;;;25.20;3.97;;;8.80;99.90;;;;;;5088025;28;20040;-72
2023/12/10 11:12:42;;;;;;;27.48;3.45;;;8.80;99.90;;;;;;5091859;28;20063;-71
2023/12/10 11:15:17;;;;;;;17.80;3.45;;;8.80;99.90;;;;;;5078083;28;20057;-72
2023/12/10 11:17:58;;;;;;;26.17;3.90;;;8.80;99.90;;;;;;5076366;28;20032;-72
2023/12/10 11:20:35;;;;;;;17.52;3.40;;;8.70;99.90;;;;;;5082797;28;20044;-72
2023/12/10 11:23:03;;;;;;;22.60;3.85;;;8.80;99.90;;;;;;5081832;28;20032;-71
2023/12/10 11:25:30;;;;;;;20.35;3.85;;;8.80;99.90;;;;;;5088000;28;20110;-72
2023/12/10 11:27:57;;;;;;;28.13;4.20;;;8.80;99.90;;;;;;5076963;28;20047;-71
2023/12/10 11:30:27;;;;;;;19.80;3.45;;;8.80;99.90;;;;;;5086378;28;20093;-71
2023/12/10 11:32:55;;;;;;;23.10;4.20;;;8.90;99.90;;;;;;5077109;28;20032;-71
2023/12/10 11:35:21;;;;;;;18.57;3.97;;;8.90;99.90;;;;;;5076989;28;20414;-71
2023/12/10 11:37:47;;;;;;;25.07;4.10;;;8.90;99.90;;;;;;5083825;28;20451;-71
2023/12/10 11:40:13;;;;;;;29.13;5.13;;;9.00;99.90;;;;;;5076935;28;20119;-72
2023/12/10 11:42:41;;;;;;;21.20;3.80;;;9.00;99.90;;;;;;5074405;28;20040;-71
2023/12/10 11:45:07;;;;;;;30.05;4.40;;;9.00;99.90;;;;;;5079410;28;20177;-71
2023/12/10 11:47:33;;;;;;;16.20;3.80;;;9.00;99.90;;;;;;5082814;28;20036;-72
2023/12/10 11:50:01;;;;;;;23.97;3.43;;;9.00;99.90;;;;;;5076800;28;20456;-72
2023/12/10 11:52:29;;;;;;;20.30;3.80;;;8.90;99.90;;;;;;5079673;28;20048;-72
2023/12/10 11:54:54;;;;;;;17.95;3.33;;;8.90;99.90;;;;;;5091266;28;20043;-72
2023/12/10 11:57:21;;;;;;;18.30;3.15;;;8.90;99.90;;;;;;5080883;28;20044;-72
2023/12/10 11:59:50;;;;;;;13.35;3.20;;;8.90;99.90;;;;;;5074705;28;20447;-71
2023/12/10 12:02:19;;;;;;;16.23;4.20;;;8.80;99.90;;;;;;5083721;28;20032;-71
2023/12/10 12:04:45;;;;;;;16.73;4.03;;;8.80;99.90;;;;;;5079435;28;20184;-71
2023/12/10 12:07:33;;;;;;;28.10;3.93;;;8.80;99.90;;;;;;5068025;28;20383;-71
2023/12/10 12:09:59;;;;;;;12.40;2.78;;;8.80;99.90;;;;;;5076669;28;20349;-71
2023/12/10 12:12:24;;;;;;;18.97;3.50;;;8.80;99.90;;;;;;5073435;28;20143;-71
2023/12/10 12:14:53;;;;;;;30.07;4.63;;;8.80;99.90;;;;;;5078226;28;20075;-71
2023/12/10 12:17:20;;;;;;;15.93;3.55;;;8.80;99.90;;;;;;5078496;28;20205;-71
2023/12/10 12:19:46;;;;;;;11.90;3.13;;;8.90;99.90;;;;;;5081230;28;20085;-71
2023/12/10 12:22:12;;;;;;;13.98;3.78;;;8.90;99.90;;;;;;5059818;28;20052;-71
2023/12/10 12:24:39;;;;;;;28.65;4.13;;;8.90;99.90;;;;;;5084905;28;20040;-70
2023/12/10 12:27:08;;;;;;;17.70;3.97;;;8.90;99.90;;;;;;5086173;28;20087;-70
2023/12/10 12:29:35;;;;;;;21.92;2.97;;;8.80;99.90;;;;;;5096127;28;20516;-71
2023/12/10 12:32:04;;;;;;;16.17;3.95;;;8.80;99.90;;;;;;5089877;28;20229;-70
2023/12/10 12:34:30;;;;;;;20.65;4.40;;;8.80;99.90;;;;;;5087224;28;20044;-71
2023/12/10 12:36:57;;;;;;;17.45;2.95;;;8.80;99.90;;;;;;5091483;28;20524;-70
2023/12/10 12:39:23;;;;;;;17.60;4.20;;;8.70;99.90;;;;;;5091774;28;20200;-70
2023/12/10 12:41:49;;;;;;;19.80;3.58;;;8.70;99.90;;;;;;5105266;28;20050;-69
2023/12/10 12:44:16;;;;;;;16.27;2.90;;;8.70;99.90;;;;;;5094147;28;20064;-70
2023/12/10 12:46:42;;;;;;;20.67;4.57;;;8.70;99.90;;;;;;5087060;28;20107;-70